createdAt,value
2022-10-06T00:01:03.826Z,7.55
2022-10-06T00:03:31.982Z,8.63
2022-10-06T00:06:01.131Z,8.57
2022-10-06T00:08:30.838Z,20.92
2022-10-06T00:10:58.927Z,8.63
2022-10-06T00:13:27.630Z,7.15
2022-10-06T00:15:55.158Z,6.72
2022-10-06T00:18:23.010Z,10.18
2022-10-06T00:20:58.208Z,9.75
2022-10-06T00:23:26.632Z,11.57
2022-10-06T00:25:54.095Z,9.93
2022-10-06T00:28:21.790Z,9.20
2022-10-06T00:30:51.165Z,12.68
2022-10-06T00:33:19.263Z,8.52
2022-10-06T00:35:47.149Z,9.73
2022-10-06T00:38:16.919Z,11.15
2022-10-06T00:40:49.976Z,10.70
2022-10-06T00:43:48.295Z,10.80
2022-10-06T00:46:35.312Z,7.62
2022-10-06T00:49:35.731Z,10.50
2022-10-06T00:52:09.377Z,9.52
2022-10-06T00:54:37.841Z,14.48
2022-10-06T00:57:06.087Z,9.05
2022-10-06T00:59:33.572Z,8.57
2022-10-06T01:02:05.829Z,9.97
2022-10-06T01:04:36.120Z,8.98
2022-10-06T01:07:04.491Z,9.85
2022-10-06T01:09:32.008Z,12.48
2022-10-06T01:12:02.146Z,10.50
2022-10-06T01:14:30.096Z,12.83
2022-10-06T01:17:02.965Z,7.78
2022-10-06T01:19:44.265Z,8.68
2022-10-06T01:22:13.100Z,9.13
2022-10-06T01:24:40.951Z,8.65
2022-10-06T01:27:10.357Z,10.80
2022-10-06T01:29:38.348Z,10.27
2022-10-06T01:32:06.124Z,9.95
2022-10-06T01:34:33.712Z,11.20
2022-10-06T01:37:01.188Z,13.88
2022-10-06T01:39:29.670Z,7.77
2022-10-06T01:41:57.491Z,9.68
2022-10-06T01:44:25.012Z,8.32
2022-10-06T01:46:52.921Z,11.63
2022-10-06T01:49:20.459Z,9.38
2022-10-06T01:51:47.976Z,9.70
2022-10-06T01:54:15.909Z,9.77
2022-10-06T01:56:43.432Z,8.93
2022-10-06T01:59:11.971Z,8.93
2022-10-06T02:01:39.854Z,7.45
2022-10-06T02:04:08.090Z,10.93
2022-10-06T02:06:35.752Z,8.82
2022-10-06T02:09:04.077Z,6.97
2022-10-06T02:11:31.856Z,9.73
2022-10-06T02:14:01.507Z,10.82
2022-10-06T02:16:29.586Z,7.50
2022-10-06T02:18:57.296Z,8.82
2022-10-06T02:21:25.260Z,12.18
2022-10-06T02:23:52.726Z,7.93
2022-10-06T02:26:20.363Z,5.78
2022-10-06T02:28:49.972Z,6.73
2022-10-06T02:31:18.553Z,13.70
2022-10-06T02:33:46.296Z,9.70
2022-10-06T02:36:16.687Z,8.45
2022-10-06T02:38:44.690Z,9.27
2022-10-06T02:41:12.180Z,9.27
2022-10-06T02:43:40.097Z,9.32
2022-10-06T02:46:12.053Z,9.40
2022-10-06T02:48:40.968Z,8.30
2022-10-06T02:51:12.121Z,6.82
2022-10-06T02:53:40.252Z,8.57
2022-10-06T02:56:10.056Z,7.47
2022-10-06T02:58:39.513Z,5.70
2022-10-06T03:01:20.568Z,7.37
2022-10-06T03:03:48.411Z,7.65
2022-10-06T03:06:23.918Z,9.70
2022-10-06T03:08:54.470Z,7.93
2022-10-06T03:11:24.984Z,8.52
2022-10-06T03:13:52.824Z,6.93
2022-10-06T03:16:25.786Z,6.75
2022-10-06T03:18:55.228Z,7.77
2022-10-06T03:21:25.174Z,7.87
2022-10-06T03:23:53.798Z,12.25
2022-10-06T03:26:23.909Z,6.60
2022-10-06T03:28:51.551Z,8.38
2022-10-06T03:31:19.226Z,8.03
2022-10-06T03:33:47.704Z,6.80
2022-10-06T03:36:17.637Z,7.05
2022-10-06T03:38:45.218Z,6.40
2022-10-06T03:41:25.170Z,8.38
2022-10-06T03:43:54.190Z,16.10
2022-10-06T03:46:24.354Z,7.05
2022-10-06T03:48:52.860Z,7.20
2022-10-06T03:51:27.236Z,6.53
2022-10-06T03:53:56.331Z,7.22
2022-10-06T03:56:26.241Z,8.43
2022-10-06T03:58:55.965Z,6.95
2022-10-06T04:01:26.961Z,9.93
2022-10-06T04:03:56.475Z,7.20
2022-10-06T04:06:24.770Z,6.93
2022-10-06T04:08:53.115Z,7.40
2022-10-06T04:11:22.259Z,6.93
2022-10-06T04:13:59.817Z,8.60
2022-10-06T04:16:32.618Z,6.72
2022-10-06T04:19:02.188Z,5.87
2022-10-06T04:21:31.517Z,7.13
2022-10-06T04:24:00.076Z,9.60
2022-10-06T04:26:30.871Z,8.30
2022-10-06T04:29:00.605Z,8.98
2022-10-06T04:31:31.487Z,8.80
2022-10-06T04:34:01.008Z,5.63
2022-10-06T04:36:31.436Z,7.28
2022-10-06T04:39:02.817Z,6.05
2022-10-06T04:41:32.882Z,7.55
2022-10-06T04:44:00.944Z,10.57
2022-10-06T04:46:42.732Z,6.87
2022-10-06T04:49:17.964Z,7.00
2022-10-06T04:51:50.746Z,6.97
2022-10-06T04:54:19.363Z,6.85
2022-10-06T04:56:47.241Z,7.55
2022-10-06T04:59:15.677Z,9.50
2022-10-06T05:01:43.947Z,8.73
2022-10-06T05:04:12.413Z,6.37
2022-10-06T05:06:41.594Z,5.05
2022-10-06T05:09:11.599Z,5.37
2022-10-06T05:11:39.618Z,8.90
2022-10-06T05:14:07.854Z,6.85
2022-10-06T05:16:38.238Z,10.25
2022-10-06T05:19:06.343Z,7.85
2022-10-06T05:21:34.126Z,7.75
2022-10-06T05:24:03.452Z,6.97
2022-10-06T05:26:32.329Z,6.47
2022-10-06T05:29:00.895Z,7.35
2022-10-06T05:31:31.898Z,7.57
2022-10-06T05:33:59.846Z,7.43
2022-10-06T05:36:29.972Z,6.00
2022-10-06T05:38:58.659Z,9.43
2022-10-06T05:41:31.059Z,8.57
2022-10-06T05:43:59.576Z,7.57
2022-10-06T05:46:29.217Z,8.50
2022-10-06T05:48:58.495Z,7.40
2022-10-06T05:51:30.978Z,6.90
2022-10-06T05:53:59.951Z,9.40
2022-10-06T05:56:33.132Z,13.82
2022-10-06T05:59:02.324Z,12.02
2022-10-06T06:01:31.556Z,7.93
2022-10-06T06:04:02.906Z,12.63
2022-10-06T06:06:36.151Z,9.93
2022-10-06T06:09:06.853Z,11.82
2022-10-06T06:11:35.826Z,10.60
2022-10-06T06:14:11.492Z,9.47
2022-10-06T06:16:41.066Z,9.55
2022-10-06T06:19:09.836Z,14.00
2022-10-06T06:21:38.338Z,14.13
2022-10-06T06:24:06.549Z,15.85
2022-10-06T06:26:39.334Z,12.13
2022-10-06T06:29:07.130Z,13.30
2022-10-06T06:31:37.995Z,11.52
2022-10-06T06:34:07.437Z,13.35
2022-10-06T06:36:37.574Z,18.27
2022-10-06T06:39:10.313Z,16.10
2022-10-06T06:41:41.012Z,21.62
2022-10-06T06:44:11.480Z,20.17
2022-10-06T06:46:41.207Z,18.85
2022-10-06T06:49:09.748Z,16.25
2022-10-06T06:51:43.054Z,19.87
2022-10-06T06:54:11.659Z,16.17
2022-10-06T06:56:39.399Z,17.75
2022-10-06T06:59:09.025Z,13.85
2022-10-06T07:01:38.349Z,19.62
2022-10-06T07:04:06.309Z,18.03
2022-10-06T07:06:37.041Z,18.45
2022-10-06T07:09:05.051Z,15.70
2022-10-06T07:11:40.819Z,17.33
2022-10-06T07:14:11.810Z,18.37
2022-10-06T07:16:58.424Z,18.00
2022-10-06T07:19:45.360Z,17.42
2022-10-06T07:22:37.060Z,18.55
2022-10-06T07:25:25.444Z,15.70
2022-10-06T07:27:54.902Z,16.83
2022-10-06T07:30:26.113Z,12.17
2022-10-06T07:32:54.555Z,17.17
2022-10-06T07:35:23.722Z,13.02
2022-10-06T07:37:53.279Z,21.65
2022-10-06T07:40:22.530Z,16.12
2022-10-06T07:42:53.237Z,18.17
2022-10-06T07:45:45.102Z,15.15
2022-10-06T07:48:18.259Z,20.77
2022-10-06T07:50:49.196Z,15.45
2022-10-06T07:53:18.568Z,15.43
2022-10-06T07:55:47.781Z,19.47
2022-10-06T07:58:20.681Z,17.30
2022-10-06T08:00:48.886Z,16.70
2022-10-06T08:03:18.151Z,15.38
2022-10-06T08:05:47.175Z,19.45
2022-10-06T08:08:14.976Z,14.60
2022-10-06T08:10:43.680Z,16.67
2022-10-06T08:13:11.182Z,13.55
2022-10-06T08:15:38.909Z,14.68
2022-10-06T08:18:21.433Z,13.77
2022-10-06T08:20:55.499Z,14.40
2022-10-06T08:23:23.219Z,13.27
2022-10-06T08:25:52.100Z,12.13
2022-10-06T08:28:22.234Z,12.60
2022-10-06T08:30:52.380Z,10.70
2022-10-06T08:33:21.587Z,10.93
2022-10-06T08:35:49.121Z,13.68
2022-10-06T08:38:16.865Z,10.23
2022-10-06T08:40:44.953Z,12.77
2022-10-06T08:43:18.576Z,9.88
2022-10-06T08:45:47.175Z,10.23
2022-10-06T08:48:18.767Z,9.23
2022-10-06T08:50:52.521Z,13.18
2022-10-06T08:53:29.047Z,12.95
2022-10-06T08:56:06.222Z,11.00
2022-10-06T08:58:50.474Z,11.50
2022-10-06T09:01:21.248Z,14.82
2022-10-06T09:03:49.451Z,14.07
2022-10-06T09:06:31.353Z,11.12
2022-10-06T09:09:06.869Z,15.02
2022-10-06T09:11:47.137Z,9.70
2022-10-06T09:14:20.321Z,10.30
2022-10-06T09:16:51.492Z,12.32
2022-10-06T09:19:31.325Z,13.62
2022-10-06T09:22:02.324Z,9.32
2022-10-06T09:24:46.952Z,8.97
2022-10-06T09:27:23.313Z,10.23
2022-10-06T09:29:51.592Z,9.10
2022-10-06T09:32:21.570Z,12.48
2022-10-06T09:34:55.887Z,9.45
2022-10-06T09:37:23.796Z,12.03
2022-10-06T09:39:53.223Z,8.88
2022-10-06T09:42:27.042Z,9.63
2022-10-06T09:45:23.784Z,11.63
2022-10-06T09:47:51.245Z,10.05
2022-10-06T09:50:27.636Z,8.77
2022-10-06T09:52:58.236Z,10.60
2022-10-06T09:55:28.711Z,10.23
2022-10-06T09:57:57.197Z,11.60
2022-10-06T10:00:39.393Z,9.48
2022-10-06T10:03:11.076Z,9.97
2022-10-06T10:05:41.532Z,9.68
2022-10-06T10:08:22.329Z,7.72
2022-10-06T10:11:32.121Z,9.13
2022-10-06T10:13:59.936Z,11.23
2022-10-06T10:16:31.007Z,7.27
2022-10-06T10:18:58.548Z,7.43
2022-10-06T10:21:29.875Z,9.00
2022-10-06T10:23:58.914Z,7.87
2022-10-06T10:26:45.649Z,6.72
2022-10-06T10:29:22.103Z,9.47
2022-10-06T10:32:28.225Z,9.70
2022-10-06T10:35:00.170Z,7.90
2022-10-06T10:37:43.071Z,9.52
2022-10-06T10:40:19.326Z,8.63
2022-10-06T10:42:52.519Z,8.30
2022-10-06T10:45:55.181Z,8.18
2022-10-06T10:48:34.230Z,8.98
2022-10-06T10:51:50.056Z,8.23
2022-10-06T10:54:21.456Z,11.35
2022-10-06T10:56:50.883Z,14.33
2022-10-06T10:59:47.879Z,8.88
2022-10-06T11:02:19.831Z,8.70
2022-10-06T11:04:53.838Z,11.10
2022-10-06T11:07:33.753Z,10.40
2022-10-06T11:10:21.064Z,9.40
2022-10-06T11:12:57.786Z,14.98
2022-10-06T11:15:45.260Z,9.35
2022-10-06T11:18:32.037Z,10.95
2022-10-06T11:21:22.244Z,10.05
2022-10-06T11:24:15.552Z,9.30
2022-10-06T11:27:05.081Z,13.35
2022-10-06T11:29:40.537Z,9.90
2022-10-06T11:32:23.993Z,10.82
2022-10-06T11:34:51.858Z,8.68
2022-10-06T11:37:38.441Z,9.80
2022-10-06T11:40:36.390Z,11.02
2022-10-06T11:43:23.660Z,8.60
2022-10-06T11:46:12.578Z,9.32
2022-10-06T11:48:42.340Z,9.23
2022-10-06T11:51:25.296Z,9.60
2022-10-06T11:53:53.381Z,10.13
2022-10-06T11:56:20.777Z,8.75
2022-10-06T11:58:50.927Z,11.05
2022-10-06T12:01:27.899Z,10.30
2022-10-06T12:04:18.452Z,10.70
2022-10-06T12:06:51.358Z,8.02
2022-10-06T12:09:32.578Z,12.55
2022-10-06T12:12:15.432Z,10.13
2022-10-06T12:18:43.867Z,8.03
2022-10-06T12:21:36.297Z,7.47
2022-10-06T12:24:19.857Z,12.23
2022-10-06T12:27:00.621Z,10.65
2022-10-06T12:29:55.890Z,9.38
2022-10-06T12:32:46.542Z,9.17
2022-10-06T12:35:24.715Z,7.60
2022-10-06T12:37:55.080Z,10.90
2022-10-06T12:40:40.398Z,8.63
2022-10-06T12:43:23.377Z,7.15
2022-10-06T12:46:09.667Z,7.13
2022-10-06T12:48:53.319Z,7.62
2022-10-06T12:51:34.706Z,9.25
2022-10-06T12:54:02.666Z,8.18
2022-10-06T12:56:38.201Z,7.90
2022-10-06T12:59:26.486Z,8.83
2022-10-06T13:02:17.628Z,6.10
2022-10-06T13:04:49.304Z,6.75
2022-10-06T13:07:25.724Z,6.95
2022-10-06T13:10:09.995Z,9.15
2022-10-06T13:12:38.667Z,6.00
2022-10-06T13:15:23.372Z,6.50
2022-10-06T13:17:55.364Z,6.80
2022-10-06T13:20:30.218Z,7.07
2022-10-06T13:23:05.670Z,6.85
2022-10-06T13:25:48.344Z,5.37
2022-10-06T13:28:21.890Z,7.28
2022-10-06T13:30:56.308Z,5.75
2022-10-06T13:33:27.033Z,7.93
2022-10-06T13:35:55.636Z,7.10
2022-10-06T13:38:23.260Z,6.17
2022-10-06T13:41:19.676Z,6.65
2022-10-06T13:43:51.875Z,6.45
2022-10-06T13:46:21.695Z,13.32
2022-10-06T13:48:53.317Z,15.45
2022-10-06T13:51:24.256Z,8.43
2022-10-06T13:53:52.366Z,8.38
2022-10-06T13:56:38.954Z,8.20
2022-10-06T13:59:18.934Z,7.47
2022-10-06T14:01:46.564Z,9.60
2022-10-06T14:04:16.046Z,8.57
2022-10-06T14:06:50.077Z,7.05
2022-10-06T14:09:23.088Z,8.00
2022-10-06T14:11:51.981Z,10.80
2022-10-06T14:14:19.704Z,9.05
2022-10-06T14:16:49.083Z,9.10
2022-10-06T14:19:35.243Z,8.93
2022-10-06T14:22:04.746Z,11.70
2022-10-06T14:24:37.130Z,6.93
2022-10-06T14:27:06.895Z,9.52
2022-10-06T14:29:36.249Z,8.20
2022-10-06T14:32:15.367Z,8.25
2022-10-06T14:34:43.566Z,10.18
2022-10-06T14:37:15.122Z,7.50
2022-10-06T14:39:43.502Z,13.60
2022-10-06T14:42:12.008Z,7.60
2022-10-06T14:44:39.530Z,9.70
2022-10-06T14:47:09.258Z,10.35
2022-10-06T14:49:40.546Z,10.63
2022-10-06T14:52:10.519Z,11.75
2022-10-06T14:54:38.238Z,10.30
2022-10-06T14:57:05.725Z,8.93
2022-10-06T14:59:33.674Z,10.98
2022-10-06T15:02:01.354Z,10.65
2022-10-06T15:04:29.066Z,8.32
2022-10-06T15:07:15.362Z,9.67
2022-10-06T15:09:42.831Z,13.68
2022-10-06T15:12:10.523Z,9.82
2022-10-06T15:14:39.802Z,11.93
2022-10-06T15:17:07.647Z,11.07
2022-10-06T15:19:35.416Z,12.03
2022-10-06T15:22:04.623Z,13.00
2022-10-06T15:24:32.126Z,11.73
2022-10-06T15:27:23.880Z,11.10
2022-10-06T15:29:52.510Z,11.23
2022-10-06T15:32:20.251Z,10.70
2022-10-06T15:34:47.824Z,10.82
2022-10-06T15:37:15.355Z,8.35
2022-10-06T15:39:44.314Z,9.20
2022-10-06T15:42:11.864Z,9.93
2022-10-06T15:44:39.398Z,11.40
2022-10-06T15:47:07.665Z,10.65
2022-10-06T15:49:40.372Z,13.02
2022-10-06T15:52:11.444Z,11.10
2022-10-06T15:54:46.026Z,11.32
2022-10-06T15:57:20.270Z,13.60
2022-10-06T15:59:48.673Z,10.93
2022-10-06T16:02:17.881Z,11.57
2022-10-06T16:05:08.953Z,12.88
2022-10-06T16:07:36.697Z,13.32
2022-10-06T16:10:04.883Z,9.80
2022-10-06T16:12:32.786Z,10.93
2022-10-06T16:15:00.388Z,10.77
2022-10-06T16:17:28.119Z,14.45
2022-10-06T16:19:56.972Z,10.45
2022-10-06T16:22:24.552Z,8.60
2022-10-06T16:24:52.299Z,9.15
2022-10-06T16:27:20.981Z,8.65
2022-10-06T16:29:48.629Z,9.23
2022-10-06T16:32:17.266Z,9.07
2022-10-06T16:34:50.316Z,8.23
2022-10-06T16:37:18.133Z,13.20
2022-10-06T16:39:45.745Z,12.20
2022-10-06T16:42:13.276Z,14.25
2022-10-06T16:44:41.064Z,9.32
2022-10-06T16:47:08.658Z,7.70
2022-10-06T16:49:36.595Z,8.90
2022-10-06T16:52:04.564Z,9.35
2022-10-06T16:54:31.997Z,10.13
2022-10-06T16:57:04.185Z,11.40
2022-10-06T16:59:32.170Z,10.40
2022-10-06T17:01:59.638Z,7.72
2022-10-06T17:04:27.258Z,12.45
2022-10-06T17:06:56.953Z,11.02
2022-10-06T17:09:26.967Z,7.55
2022-10-06T17:11:57.278Z,9.20
2022-10-06T17:14:26.256Z,9.45
2022-10-06T17:16:56.083Z,9.18
2022-10-06T17:19:26.509Z,9.68
2022-10-06T17:21:58.631Z,11.48
2022-10-06T17:24:29.653Z,9.83
2022-10-06T17:26:57.991Z,12.20
2022-10-06T17:29:26.354Z,8.73
2022-10-06T17:31:59.411Z,10.25
2022-10-06T17:34:32.302Z,10.25
2022-10-06T17:37:01.599Z,10.70
2022-10-06T17:39:29.525Z,11.45
2022-10-06T17:41:57.181Z,14.32
2022-10-06T17:44:29.208Z,9.95
2022-10-06T17:46:59.431Z,13.20
2022-10-06T17:49:30.366Z,9.23
2022-10-06T17:51:58.027Z,9.68
2022-10-06T17:54:27.136Z,12.25
2022-10-06T17:56:56.885Z,9.68
2022-10-06T17:59:28.866Z,9.18
2022-10-06T18:01:58.445Z,10.83
2022-10-06T18:04:27.102Z,9.25
2022-10-06T18:06:54.877Z,10.68
2022-10-06T18:09:22.514Z,9.50
2022-10-06T18:11:55.572Z,9.68
2022-10-06T18:14:25.982Z,14.80
2022-10-06T18:16:56.954Z,8.57
2022-10-06T18:19:28.591Z,11.75
2022-10-06T18:21:59.114Z,9.02
2022-10-06T18:24:28.717Z,9.15
2022-10-06T18:26:58.057Z,11.47
2022-10-06T18:29:29.010Z,10.55
2022-10-06T18:32:09.117Z,10.40
2022-10-06T18:37:32.112Z,10.98
2022-10-06T18:40:01.549Z,12.20
2022-10-06T18:42:29.623Z,10.90
2022-10-06T18:45:16.175Z,8.52
2022-10-06T18:48:02.358Z,11.07
2022-10-06T18:50:31.024Z,9.60
2022-10-06T18:52:58.470Z,9.67
2022-10-06T18:55:27.827Z,11.90
2022-10-06T18:57:55.653Z,8.63
2022-10-06T19:00:26.068Z,12.90
2022-10-06T19:02:55.560Z,10.15
2022-10-06T19:05:24.123Z,8.67
2022-10-06T19:07:57.801Z,9.85
2022-10-06T19:10:25.618Z,12.02
2022-10-06T19:12:53.224Z,8.38
2022-10-06T19:15:21.534Z,10.52
2022-10-06T19:17:49.747Z,8.63
2022-10-06T19:20:18.471Z,10.23
2022-10-06T19:22:47.690Z,12.00
2022-10-06T19:25:18.931Z,12.35
2022-10-06T19:27:47.055Z,11.23
2022-10-06T19:30:15.870Z,8.50
2022-10-06T19:32:43.789Z,10.65
2022-10-06T19:35:13.997Z,7.68
2022-10-06T19:37:41.850Z,9.82
2022-10-06T19:40:11.400Z,13.60
2022-10-06T19:42:50.229Z,9.60
2022-10-06T19:45:19.053Z,6.93
2022-10-06T19:47:47.365Z,8.43
2022-10-06T19:50:17.063Z,9.05
2022-10-06T19:52:45.263Z,12.13
2022-10-06T19:55:12.802Z,14.03
2022-10-06T19:57:40.634Z,9.18
2022-10-06T20:00:10.254Z,8.10
2022-10-06T20:02:43.490Z,8.60
2022-10-06T20:05:16.027Z,9.80
2022-10-06T20:07:46.592Z,8.80
2022-10-06T20:10:15.285Z,7.10
2022-10-06T20:12:42.990Z,6.85
2022-10-06T20:15:10.799Z,8.73
2022-10-06T20:17:39.355Z,10.35
2022-10-06T20:20:07.441Z,9.80
2022-10-06T20:22:35.741Z,9.93
2022-10-06T20:25:05.309Z,9.93
2022-10-06T20:27:32.805Z,7.10
2022-10-06T20:30:00.328Z,8.48
2022-10-06T20:32:28.072Z,10.90
2022-10-06T20:34:55.626Z,8.88
2022-10-06T20:37:23.213Z,11.75
2022-10-06T20:40:09.773Z,8.50
2022-10-06T20:42:37.543Z,8.98
2022-10-06T20:45:05.681Z,7.13
2022-10-06T20:47:33.217Z,8.60
2022-10-06T20:50:00.761Z,10.35
2022-10-06T20:52:29.405Z,9.50
2022-10-06T20:54:56.888Z,10.63
2022-10-06T20:57:24.428Z,8.27
2022-10-06T20:59:52.576Z,9.27
2022-10-06T21:02:20.125Z,10.75
2022-10-06T21:04:47.586Z,9.48
2022-10-06T21:07:15.319Z,9.30
2022-10-06T21:09:43.401Z,9.37
2022-10-06T21:12:10.839Z,8.00
2022-10-06T21:14:42.168Z,9.88
2022-10-06T21:17:09.647Z,9.38
2022-10-06T21:19:37.703Z,8.32
2022-10-06T21:22:05.510Z,10.03
2022-10-06T21:24:32.983Z,12.07
2022-10-06T21:27:00.498Z,8.77
2022-10-06T21:29:28.271Z,10.73
2022-10-06T21:31:55.690Z,10.63
2022-10-06T21:34:23.103Z,10.43
2022-10-06T21:36:52.066Z,9.07
2022-10-06T21:39:19.490Z,9.35
2022-10-06T21:41:49.755Z,8.25
2022-10-06T21:44:18.638Z,7.37
2022-10-06T21:46:51.370Z,6.63
2022-10-06T21:49:21.024Z,10.25
2022-10-06T21:51:50.807Z,10.23
2022-10-06T21:54:18.947Z,6.80
2022-10-06T21:56:48.384Z,8.05
2022-10-06T21:59:16.075Z,8.80
2022-10-06T22:01:45.039Z,7.80
2022-10-06T22:04:14.363Z,11.75
2022-10-06T22:06:43.545Z,9.73
2022-10-06T22:09:15.667Z,10.52
2022-10-06T22:11:44.439Z,7.13
2022-10-06T22:14:14.873Z,9.77
2022-10-06T22:16:43.225Z,9.07
2022-10-06T22:19:12.377Z,10.52
2022-10-06T22:21:42.429Z,10.68
2022-10-06T22:24:15.375Z,10.00
2022-10-06T22:26:43.999Z,8.90
2022-10-06T22:29:13.777Z,9.35
2022-10-06T22:31:43.865Z,9.70
2022-10-06T22:34:13.781Z,10.98
2022-10-06T22:36:41.290Z,11.97
2022-10-06T22:39:08.961Z,9.07
2022-10-06T22:41:37.044Z,13.20
2022-10-06T22:44:04.756Z,11.20
2022-10-06T22:46:35.420Z,8.60
2022-10-06T22:49:04.567Z,9.03
2022-10-06T22:51:32.545Z,14.98
2022-10-06T22:54:00.414Z,9.93
2022-10-06T22:56:29.358Z,12.73
2022-10-06T22:58:59.623Z,11.85
2022-10-06T23:01:29.327Z,9.67
2022-10-06T23:03:57.275Z,9.05
2022-10-06T23:06:25.586Z,12.20
2022-10-06T23:08:53.381Z,9.07
2022-10-06T23:11:22.371Z,8.90
2022-10-06T23:13:50.423Z,9.00
2022-10-06T23:16:19.428Z,12.23
2022-10-06T23:18:47.997Z,11.18
2022-10-06T23:21:21.307Z,10.60
2022-10-06T23:23:58.270Z,9.48
2022-10-06T23:26:25.960Z,8.63
2022-10-06T23:28:56.083Z,11.65
2022-10-06T23:31:23.969Z,9.55
2022-10-06T23:33:51.611Z,8.80
2022-10-06T23:36:19.399Z,8.95
2022-10-06T23:38:46.927Z,10.90
2022-10-06T23:41:14.855Z,11.55
2022-10-06T23:43:42.583Z,12.93
2022-10-06T23:46:10.277Z,12.48
2022-10-06T23:48:38.554Z,11.57
2022-10-06T23:51:08.390Z,11.37
2022-10-06T23:53:36.259Z,10.02
2022-10-06T23:56:04.496Z,11.30
2022-10-06T23:58:32.401Z,12.07
